createdAt,value
2022-12-23T00:00:10.434Z,19.37
2022-12-23T00:02:42.672Z,21.90
2022-12-23T00:05:14.741Z,22.63
2022-12-23T00:07:46.789Z,15.37
2022-12-23T00:10:18.939Z,19.27
2022-12-23T00:13:09.442Z,19.03
2022-12-23T00:15:41.415Z,25.23
2022-12-23T00:18:13.387Z,21.10
2022-12-23T00:20:45.361Z,23.70
2022-12-23T00:23:17.328Z,28.20
2022-12-23T00:25:49.233Z,22.27
2022-12-23T00:28:24.568Z,24.80
2022-12-23T00:31:03.547Z,25.63
2022-12-23T00:33:40.120Z,23.40
2022-12-23T00:36:30.691Z,25.43
2022-12-23T00:39:21.216Z,24.83
2022-12-23T00:42:11.683Z,23.60
2022-12-23T00:44:44.152Z,21.93
2022-12-23T00:47:36.108Z,22.97
2022-12-23T00:50:09.383Z,23.43
2022-12-23T00:52:41.328Z,26.17
2022-12-23T00:55:13.310Z,22.27
2022-12-23T00:57:45.480Z,23.87
2022-12-23T01:00:18.136Z,24.63
2022-12-23T01:03:08.571Z,22.47
2022-12-23T01:05:40.617Z,26.00
2022-12-23T01:08:12.716Z,22.83
2022-12-23T01:10:44.928Z,24.43
2022-12-23T01:13:16.905Z,24.93
2022-12-23T01:15:48.906Z,23.80
2022-12-23T01:18:20.849Z,25.43
2022-12-23T01:20:52.875Z,23.33
2022-12-23T01:23:24.795Z,23.67
2022-12-23T01:26:01.528Z,24.47
2022-12-23T01:28:35.576Z,24.43
2022-12-23T01:31:10.645Z,25.87
2022-12-23T01:33:42.744Z,28.57
2022-12-23T01:36:15.202Z,29.17
2022-12-23T01:38:47.334Z,31.67
2022-12-23T01:41:41.263Z,29.80
2022-12-23T01:44:51.953Z,30.90
2022-12-23T01:48:04.792Z,27.50
2022-12-23T01:50:51.562Z,27.70
2022-12-23T01:53:39.640Z,29.83
2022-12-23T01:56:31.045Z,32.63
2022-12-23T01:59:11.333Z,31.23
2022-12-23T02:02:02.231Z,25.73
2022-12-23T02:04:34.307Z,26.77
2022-12-23T02:07:25.100Z,28.07
2022-12-23T02:09:57.076Z,29.40
2022-12-23T02:12:49.942Z,31.77
2022-12-23T02:16:05.668Z,29.77
2022-12-23T02:18:58.478Z,26.53
2022-12-23T02:22:06.246Z,28.53
2022-12-23T02:25:10.891Z,28.47
2022-12-23T02:27:49.290Z,29.23
2022-12-23T02:30:28.321Z,29.43
2022-12-23T02:34:00.800Z,27.93
2022-12-23T02:36:58.398Z,26.47
2022-12-23T02:39:45.412Z,26.97
2022-12-23T02:42:23.777Z,25.53
2022-12-23T02:45:31.975Z,27.03
2022-12-23T02:48:17.081Z,24.37
2022-12-23T02:50:52.799Z,24.57
2022-12-23T02:53:56.195Z,24.77
2022-12-23T02:56:33.003Z,25.63
2022-12-23T02:59:18.605Z,23.57
2022-12-23T03:01:53.384Z,24.17
2022-12-23T03:04:25.532Z,23.10
2022-12-23T03:07:02.986Z,22.80
2022-12-23T03:10:17.985Z,22.47
2022-12-23T03:13:07.863Z,22.47
2022-12-23T03:15:40.004Z,22.20
2022-12-23T03:18:17.034Z,21.33
2022-12-23T03:21:06.566Z,21.57
2022-12-23T03:23:57.964Z,21.20
2022-12-23T03:26:57.136Z,20.30
2022-12-23T03:29:57.591Z,23.07
2022-12-23T03:32:37.968Z,21.33
2022-12-23T03:35:14.202Z,22.33
2022-12-23T03:37:51.857Z,22.03
2022-12-23T03:40:30.316Z,20.20
2022-12-23T03:43:09.681Z,23.80
2022-12-23T03:45:56.383Z,23.70
2022-12-23T03:48:40.105Z,22.23
2022-12-23T03:51:19.618Z,22.10
2022-12-23T03:54:19.239Z,22.70
2022-12-23T03:57:01.509Z,20.60
2022-12-23T03:59:45.365Z,26.53
2022-12-23T04:02:45.743Z,23.07
2022-12-23T04:05:39.541Z,22.90
2022-12-23T04:08:29.793Z,23.03
2022-12-23T04:11:03.522Z,24.77
2022-12-23T04:13:35.560Z,24.03
2022-12-23T04:16:08.211Z,24.27
2022-12-23T04:18:40.268Z,25.60
2022-12-23T04:21:12.213Z,23.10
2022-12-23T04:23:44.195Z,25.17
2022-12-23T04:26:16.109Z,25.03
2022-12-23T04:28:48.602Z,27.47
2022-12-23T04:31:20.593Z,26.50
2022-12-23T04:33:52.561Z,24.00
2022-12-23T04:36:24.493Z,25.27
2022-12-23T04:38:56.619Z,25.93
2022-12-23T04:41:28.559Z,24.00
2022-12-23T04:44:00.508Z,21.20
2022-12-23T04:46:32.516Z,23.50
2022-12-23T04:49:04.590Z,20.70
2022-12-23T04:51:36.553Z,21.53
2022-12-23T04:54:08.544Z,23.23
2022-12-23T04:56:40.506Z,21.43
2022-12-23T04:59:12.655Z,23.90
2022-12-23T05:01:44.908Z,22.77
2022-12-23T05:04:17.321Z,24.77
2022-12-23T05:06:49.490Z,25.13
2022-12-23T05:09:21.502Z,27.63
2022-12-23T05:11:53.448Z,26.37
2022-12-23T05:14:25.367Z,31.40
2022-12-23T05:17:02.119Z,27.00
2022-12-23T05:19:37.272Z,25.33
2022-12-23T05:22:09.231Z,29.07
2022-12-23T05:24:41.193Z,27.70
2022-12-23T05:27:13.181Z,26.97
2022-12-23T05:29:45.127Z,24.70
2022-12-23T05:32:17.053Z,28.10
2022-12-23T05:34:49.040Z,25.60
2022-12-23T05:37:20.985Z,29.63
2022-12-23T05:39:52.954Z,29.63
2022-12-23T05:42:24.908Z,25.67
2022-12-23T05:44:56.871Z,26.67
2022-12-23T05:47:28.779Z,25.33
2022-12-23T05:50:00.880Z,27.93
2022-12-23T05:52:32.844Z,27.80
2022-12-23T05:55:06.042Z,28.03
2022-12-23T05:57:37.975Z,29.17
2022-12-23T06:00:10.835Z,30.57
2022-12-23T06:02:46.130Z,31.33
2022-12-23T06:05:22.554Z,29.83
2022-12-23T06:07:54.583Z,31.47
2022-12-23T06:10:26.593Z,31.83
2022-12-23T06:12:58.868Z,30.33
2022-12-23T06:15:30.953Z,29.60
2022-12-23T06:18:02.912Z,33.07
2022-12-23T06:20:35.029Z,34.23
2022-12-23T06:23:06.919Z,33.50
2022-12-23T06:25:38.850Z,30.60
2022-12-23T06:28:10.810Z,31.23
2022-12-23T06:30:42.744Z,34.20
2022-12-23T06:33:14.636Z,34.10
2022-12-23T06:35:46.571Z,30.93
2022-12-23T06:38:18.512Z,32.60
2022-12-23T06:40:50.479Z,31.50
2022-12-23T06:43:22.397Z,37.73
2022-12-23T06:45:54.346Z,32.60
2022-12-23T06:48:26.367Z,32.87
2022-12-23T06:50:58.317Z,33.43
2022-12-23T06:53:30.403Z,33.40
2022-12-23T06:56:03.720Z,35.23
2022-12-23T06:58:35.700Z,37.47
2022-12-23T07:01:09.198Z,33.03
2022-12-23T07:03:42.048Z,32.77
2022-12-23T07:06:14.156Z,35.20
2022-12-23T07:08:46.092Z,35.17
2022-12-23T07:11:18.666Z,35.77
2022-12-23T07:13:50.929Z,41.60
2022-12-23T07:16:22.955Z,32.93
2022-12-23T07:18:54.937Z,34.00
2022-12-23T07:21:29.824Z,32.77
2022-12-23T07:24:02.399Z,33.33
2022-12-23T07:26:34.340Z,33.13
2022-12-23T07:29:06.415Z,35.13
2022-12-23T07:31:41.152Z,34.73
2022-12-23T07:34:13.395Z,36.67
2022-12-23T07:36:45.465Z,36.77
2022-12-23T07:39:17.411Z,43.38
2022-12-23T07:41:55.517Z,43.40
2022-12-23T07:44:35.730Z,39.37
2022-12-23T07:47:07.686Z,38.47
2022-12-23T07:49:39.606Z,38.53
2022-12-23T07:52:11.553Z,36.33
2022-12-23T07:54:43.739Z,37.77
2022-12-23T07:57:15.704Z,36.60
2022-12-23T07:59:47.654Z,35.43
2022-12-23T08:02:22.202Z,41.67
2022-12-23T08:04:54.285Z,39.90
2022-12-23T08:07:26.325Z,34.37
2022-12-23T08:09:58.293Z,34.23
2022-12-23T08:12:30.432Z,32.13
2022-12-23T08:15:02.416Z,33.37
2022-12-23T08:17:34.363Z,32.07
2022-12-23T08:20:07.269Z,31.87
2022-12-23T08:22:39.254Z,29.13
2022-12-23T08:25:11.187Z,28.60
2022-12-23T08:27:43.218Z,28.43
2022-12-23T08:30:15.351Z,29.10
2022-12-23T08:32:47.299Z,27.40
2022-12-23T08:35:19.253Z,25.17
2022-12-23T08:37:51.807Z,28.27
2022-12-23T08:40:23.739Z,27.47
2022-12-23T08:42:55.860Z,29.37
2022-12-23T08:45:27.993Z,24.87
2022-12-23T08:47:59.931Z,27.73
2022-12-23T08:50:37.998Z,27.03
2022-12-23T08:53:11.405Z,29.97
2022-12-23T08:55:48.157Z,24.70
2022-12-23T08:58:20.219Z,25.17
2022-12-23T09:00:52.236Z,25.27
2022-12-23T09:03:24.344Z,24.33
2022-12-23T09:05:56.666Z,22.93
2022-12-23T09:08:28.598Z,23.63
2022-12-23T09:11:01.395Z,19.53
2022-12-23T09:13:35.876Z,27.47
2022-12-23T09:16:08.555Z,21.60
2022-12-23T09:18:42.015Z,22.67
2022-12-23T09:21:17.960Z,20.73
2022-12-23T09:23:51.251Z,19.27
2022-12-23T09:26:27.414Z,18.47
2022-12-23T09:28:59.752Z,18.30
2022-12-23T09:31:36.876Z,15.17
2022-12-23T09:34:11.969Z,17.47
2022-12-23T09:36:44.017Z,14.70
2022-12-23T09:39:16.666Z,17.27
2022-12-23T09:42:12.814Z,14.97
2022-12-23T09:45:21.294Z,20.30
2022-12-23T09:47:56.191Z,16.17
2022-12-23T09:50:34.271Z,16.47
2022-12-23T09:53:38.974Z,14.63
2022-12-23T09:56:27.605Z,17.17
2022-12-23T09:59:35.239Z,17.33
2022-12-23T10:02:39.142Z,17.13
2022-12-23T10:05:32.771Z,17.37
2022-12-23T10:08:22.649Z,17.47
2022-12-23T10:11:01.907Z,14.60
2022-12-23T10:13:50.195Z,17.30
2022-12-23T10:16:41.885Z,15.83
2022-12-23T10:19:44.272Z,14.73
2022-12-23T10:22:32.929Z,13.30
2022-12-23T10:25:41.289Z,13.57
2022-12-23T10:28:13.182Z,13.37
2022-12-23T10:31:39.276Z,13.23
2022-12-23T10:34:17.513Z,11.57
2022-12-23T10:37:16.961Z,12.70
2022-12-23T10:40:27.705Z,11.80
2022-12-23T10:43:25.636Z,12.63
2022-12-23T10:46:37.679Z,10.77
2022-12-23T10:49:48.950Z,12.57
2022-12-23T10:52:24.034Z,11.07
2022-12-23T10:54:55.951Z,12.20
2022-12-23T10:57:30.443Z,9.97
2022-12-23T11:00:10.642Z,14.73
2022-12-23T11:03:08.217Z,11.40
2022-12-23T11:05:40.603Z,12.17
2022-12-23T11:08:13.307Z,10.10
2022-12-23T11:10:46.506Z,11.83
2022-12-23T11:13:46.556Z,13.07
2022-12-23T11:16:28.624Z,13.83
2022-12-23T11:19:13.986Z,13.07
2022-12-23T11:21:58.778Z,12.90
2022-12-23T11:24:39.681Z,14.30
2022-12-23T11:27:16.830Z,11.37
2022-12-23T11:29:54.554Z,10.50
2022-12-23T11:32:28.906Z,12.23
2022-12-23T11:35:01.112Z,8.77
2022-12-23T11:37:42.989Z,10.80
2022-12-23T11:40:35.738Z,23.53
2022-12-23T11:43:17.632Z,13.97
2022-12-23T11:46:19.054Z,12.67
2022-12-23T11:49:21.942Z,10.77
2022-12-23T11:52:05.712Z,10.53
2022-12-23T11:54:39.036Z,9.60
2022-12-23T11:57:22.989Z,12.30
2022-12-23T12:00:03.455Z,12.67
2022-12-23T12:02:43.343Z,9.37
2022-12-23T12:05:40.722Z,11.47
2022-12-23T12:08:22.674Z,11.40
2022-12-23T12:11:06.323Z,9.30
2022-12-23T12:13:44.530Z,9.10
2022-12-23T12:17:00.161Z,9.83
2022-12-23T12:20:33.199Z,9.83
2022-12-23T12:23:26.670Z,8.17
2022-12-23T12:26:06.596Z,11.47
2022-12-23T12:28:47.159Z,10.17
2022-12-23T12:31:31.259Z,10.73
2022-12-23T12:34:53.891Z,9.10
2022-12-23T12:37:31.658Z,9.13
2022-12-23T12:40:51.098Z,10.73
2022-12-23T12:43:40.143Z,8.20
2022-12-23T12:46:36.857Z,8.73
2022-12-23T12:49:26.676Z,8.47
2022-12-23T12:52:20.070Z,9.00
2022-12-23T12:55:26.735Z,7.03
2022-12-23T12:58:00.956Z,8.90
2022-12-23T13:00:54.515Z,7.87
2022-12-23T13:03:55.837Z,7.77
2022-12-23T13:06:53.667Z,7.63
2022-12-23T13:09:41.988Z,8.07
2022-12-23T13:12:33.899Z,9.03
2022-12-23T13:15:27.627Z,6.63
2022-12-23T13:18:37.655Z,6.90
2022-12-23T13:21:21.718Z,7.90
2022-12-23T13:24:31.816Z,7.27
2022-12-23T13:27:53.110Z,6.93
2022-12-23T13:30:34.362Z,7.93
2022-12-23T13:33:31.763Z,7.07
2022-12-23T13:36:38.889Z,5.93
2022-12-23T13:39:44.817Z,6.83
2022-12-23T13:42:31.657Z,5.53
2022-12-23T13:45:06.814Z,5.70
2022-12-23T13:48:14.606Z,5.97
2022-12-23T13:51:07.350Z,5.87
2022-12-23T13:54:03.862Z,5.77
2022-12-23T13:56:47.224Z,5.73
2022-12-23T13:59:19.278Z,6.17
2022-12-23T14:01:52.727Z,5.63
2022-12-23T14:04:32.284Z,5.57
2022-12-23T14:07:24.605Z,5.00
2022-12-23T14:10:12.876Z,5.37
2022-12-23T14:12:44.871Z,5.27
2022-12-23T14:15:43.235Z,4.30
2022-12-23T14:18:37.192Z,5.20
2022-12-23T14:21:52.388Z,5.47
2022-12-23T14:25:21.517Z,5.17
2022-12-23T14:28:13.202Z,5.77
2022-12-23T14:30:46.134Z,5.00
2022-12-23T14:33:32.732Z,6.57
2022-12-23T14:36:26.885Z,8.13
2022-12-23T14:39:14.166Z,6.50
2022-12-23T14:41:57.565Z,5.60
2022-12-23T14:44:38.221Z,7.23
2022-12-23T14:47:40.337Z,5.53
2022-12-23T14:50:38.418Z,5.77
2022-12-23T14:53:25.044Z,5.53
2022-12-23T14:56:15.345Z,5.70
2022-12-23T14:59:02.770Z,5.60
2022-12-23T15:01:47.958Z,7.40
2022-12-23T15:04:47.954Z,6.80
2022-12-23T15:07:24.822Z,7.63
2022-12-23T15:10:01.404Z,7.77
2022-12-23T15:12:39.962Z,9.03
2022-12-23T15:15:24.148Z,9.43
2022-12-23T15:18:12.256Z,10.07
2022-12-23T15:20:44.337Z,10.30
2022-12-23T15:23:17.629Z,10.57
2022-12-23T15:25:51.363Z,12.52
2022-12-23T15:28:38.466Z,12.87
2022-12-23T15:31:26.415Z,12.63
2022-12-23T15:34:04.652Z,11.57
2022-12-23T15:36:42.265Z,12.50
2022-12-23T15:39:45.239Z,13.30
2022-12-23T15:42:35.418Z,13.90
2022-12-23T15:45:40.924Z,13.23
2022-12-23T15:48:40.441Z,12.47
2022-12-23T15:52:05.064Z,12.27
2022-12-23T15:54:43.211Z,11.50
2022-12-23T15:57:23.307Z,10.83
2022-12-23T15:59:58.357Z,10.73
2022-12-23T16:05:34.483Z,11.20
2022-12-23T16:08:16.279Z,12.50
2022-12-23T16:11:02.357Z,12.90
2022-12-23T16:13:34.336Z,12.90
2022-12-23T16:16:43.001Z,10.63
2022-12-23T16:19:48.692Z,8.20
2022-12-23T16:22:20.633Z,7.77
2022-12-23T16:25:22.311Z,7.93
2022-12-23T16:27:59.873Z,9.90
2022-12-23T16:30:39.176Z,9.53
2022-12-23T16:33:37.133Z,11.03
2022-12-23T16:36:27.356Z,12.07
2022-12-23T16:39:21.936Z,12.00
2022-12-23T16:41:53.867Z,11.73
2022-12-23T16:44:25.805Z,10.93
2022-12-23T16:47:14.237Z,10.77
2022-12-23T16:49:46.757Z,10.60
2022-12-23T16:52:18.945Z,13.70
2022-12-23T16:54:50.876Z,14.17
2022-12-23T16:57:22.834Z,14.43
2022-12-23T16:59:54.735Z,16.00
2022-12-23T17:02:28.965Z,13.60
2022-12-23T17:05:01.172Z,18.07
2022-12-23T17:07:33.125Z,18.17
2022-12-23T17:10:05.814Z,16.43
2022-12-23T17:12:38.212Z,19.47
2022-12-23T17:15:36.569Z,18.60
2022-12-23T17:18:18.713Z,17.67
2022-12-23T17:20:50.806Z,21.93
2022-12-23T17:23:32.448Z,19.60
2022-12-23T17:26:04.418Z,26.27
2022-12-23T17:28:36.379Z,22.90
2022-12-23T17:31:14.394Z,22.07
2022-12-23T17:33:48.236Z,20.93
2022-12-23T17:36:20.480Z,24.33
2022-12-23T17:38:52.540Z,22.23
2022-12-23T17:41:31.695Z,20.20
2022-12-23T17:44:05.086Z,22.23
2022-12-23T17:46:37.044Z,21.07
2022-12-23T17:49:09.473Z,21.20
2022-12-23T17:51:42.858Z,19.20
2022-12-23T17:54:24.760Z,27.17
2022-12-23T17:56:57.880Z,28.93
2022-12-23T17:59:29.917Z,23.43
2022-12-23T18:02:32.889Z,25.57
2022-12-23T18:05:35.807Z,22.30
2022-12-23T18:08:07.723Z,24.60
2022-12-23T18:10:40.957Z,27.60
2022-12-23T18:13:19.444Z,23.00
2022-12-23T18:15:51.433Z,25.80
2022-12-23T18:18:32.096Z,26.40
2022-12-23T18:21:18.944Z,28.47
2022-12-23T18:23:54.870Z,20.27
2022-12-23T18:26:26.937Z,25.00
2022-12-23T18:28:59.041Z,23.57
2022-12-23T18:31:31.504Z,25.33
2022-12-23T18:34:03.975Z,22.43
2022-12-23T18:36:35.985Z,20.83
2022-12-23T18:39:08.045Z,25.10
2022-12-23T18:41:39.996Z,22.07
2022-12-23T18:44:21.558Z,25.90
2022-12-23T18:46:53.751Z,25.47
2022-12-23T18:49:25.728Z,21.93
2022-12-23T18:51:57.756Z,22.03
2022-12-23T18:54:30.163Z,19.93
2022-12-23T18:57:03.512Z,23.33
2022-12-23T18:59:37.693Z,27.47
2022-12-23T19:02:14.219Z,23.80
2022-12-23T19:04:46.348Z,22.93
2022-12-23T19:07:18.830Z,23.53
2022-12-23T19:09:50.748Z,20.50
2022-12-23T19:12:22.769Z,22.53
2022-12-23T19:14:54.744Z,25.30
2022-12-23T19:17:26.697Z,22.93
2022-12-23T19:19:58.647Z,25.13
2022-12-23T19:22:30.732Z,22.77
2022-12-23T19:25:06.585Z,22.17
2022-12-23T19:27:43.084Z,24.67
2022-12-23T19:30:18.066Z,23.57
2022-12-23T19:32:53.329Z,21.37
2022-12-23T19:35:25.250Z,21.27
2022-12-23T19:37:57.251Z,18.90
2022-12-23T19:40:29.638Z,23.97
2022-12-23T19:43:01.662Z,24.37
2022-12-23T19:45:33.726Z,18.47
2022-12-23T19:48:06.000Z,25.83
2022-12-23T19:50:37.968Z,18.73
2022-12-23T19:53:09.874Z,21.70
2022-12-23T19:55:41.861Z,23.07
2022-12-23T19:58:13.771Z,21.60
2022-12-23T20:00:45.796Z,23.63
2022-12-23T20:03:19.201Z,25.07
2022-12-23T20:05:51.317Z,22.03
2022-12-23T20:08:23.304Z,17.30
2022-12-23T20:11:18.442Z,22.10
2022-12-23T20:13:55.169Z,23.00
2022-12-23T20:16:28.611Z,29.13
2022-12-23T20:19:00.729Z,25.00
2022-12-23T20:21:34.444Z,23.17
2022-12-23T20:24:07.160Z,24.60
2022-12-23T20:26:39.519Z,23.57
2022-12-23T20:29:11.804Z,27.40
2022-12-23T20:31:44.066Z,22.47
2022-12-23T20:34:17.302Z,27.17
2022-12-23T20:36:49.430Z,23.80
2022-12-23T20:39:21.486Z,26.53
2022-12-23T20:41:53.380Z,27.17
2022-12-23T20:44:35.068Z,26.37
2022-12-23T20:47:08.374Z,24.10
2022-12-23T20:49:40.450Z,21.83
2022-12-23T20:52:12.364Z,21.97
2022-12-23T20:54:44.533Z,21.00
2022-12-23T20:57:16.485Z,21.80
2022-12-23T20:59:48.554Z,22.30
2022-12-23T21:02:20.726Z,21.30
2022-12-23T21:04:52.832Z,23.53
2022-12-23T21:07:26.287Z,23.30
2022-12-23T21:09:58.513Z,19.70
2022-12-23T21:12:30.585Z,18.87
2022-12-23T21:15:02.663Z,20.70
2022-12-23T21:17:34.684Z,16.23
2022-12-23T21:20:09.152Z,20.37
2022-12-23T21:22:41.163Z,18.90
2022-12-23T21:25:13.225Z,16.47
2022-12-23T21:27:45.240Z,18.77
2022-12-23T21:30:17.340Z,19.87
2022-12-23T21:32:49.345Z,20.90
2022-12-23T21:35:21.268Z,16.33
2022-12-23T21:37:53.205Z,17.63
2022-12-23T21:40:25.148Z,19.73
2022-12-23T21:42:57.104Z,20.63
2022-12-23T21:45:29.087Z,18.47
2022-12-23T21:48:01.125Z,13.60
2022-12-23T21:50:33.604Z,14.60
2022-12-23T21:53:05.553Z,19.70
2022-12-23T21:55:37.488Z,20.63
2022-12-23T21:58:09.580Z,14.80
2022-12-23T22:00:46.318Z,18.63
2022-12-23T22:03:18.393Z,16.77
2022-12-23T22:05:50.339Z,20.97
2022-12-23T22:08:22.374Z,17.03
2022-12-23T22:10:54.323Z,20.40
2022-12-23T22:13:27.668Z,20.80
2022-12-23T22:15:59.720Z,20.90
2022-12-23T22:18:32.343Z,19.80
2022-12-23T22:21:11.432Z,20.50
2022-12-23T22:23:43.890Z,21.37
2022-12-23T22:26:25.332Z,23.80
2022-12-23T22:29:01.120Z,21.37
2022-12-23T22:31:44.961Z,26.30
2022-12-23T22:34:22.604Z,21.33
2022-12-23T22:36:54.567Z,19.97
2022-12-23T22:39:26.696Z,22.60
2022-12-23T22:41:58.699Z,20.93
2022-12-23T22:44:30.697Z,21.23
2022-12-23T22:47:02.775Z,21.13
2022-12-23T22:49:34.853Z,22.47
2022-12-23T22:52:06.815Z,17.40
2022-12-23T22:54:39.652Z,18.93
2022-12-23T22:57:11.652Z,15.17
2022-12-23T22:59:43.831Z,21.43
2022-12-23T23:02:15.843Z,19.00
2022-12-23T23:04:47.912Z,18.33
2022-12-23T23:07:19.932Z,18.50
2022-12-23T23:09:51.901Z,21.13
2022-12-23T23:12:23.912Z,19.50
2022-12-23T23:14:55.998Z,19.90
2022-12-23T23:17:29.335Z,19.53
2022-12-23T23:20:01.289Z,19.20
2022-12-23T23:22:33.290Z,24.33
2022-12-23T23:25:06.110Z,21.17
2022-12-23T23:27:38.051Z,20.87
2022-12-23T23:30:10.603Z,22.77
2022-12-23T23:32:42.838Z,19.60
2022-12-23T23:35:14.969Z,22.57
2022-12-23T23:37:46.923Z,22.80
2022-12-23T23:40:19.004Z,25.40
2022-12-23T23:42:50.993Z,21.60
2022-12-23T23:45:23.208Z,25.23
2022-12-23T23:47:56.335Z,24.47
2022-12-23T23:50:28.354Z,21.73
2022-12-23T23:53:00.303Z,25.43
2022-12-23T23:55:32.748Z,24.37
2022-12-23T23:58:06.359Z,25.10
